createdAt,value
2023-05-09T00:00:31.995Z,101096.56
2023-05-09T00:03:00.176Z,101096.56
2023-05-09T00:05:26.864Z,101095.75
2023-05-09T00:07:53.450Z,101098.53
2023-05-09T00:10:20.070Z,101093.66
2023-05-09T00:12:46.647Z,101092.25
2023-05-09T00:15:13.453Z,101074.53
2023-05-09T00:17:40.187Z,101069.22
2023-05-09T00:20:09.618Z,101073.13
2023-05-09T00:22:36.201Z,101048.13
2023-05-09T00:25:02.732Z,101059.75
2023-05-09T00:27:29.272Z,101061.81
2023-05-09T00:29:55.873Z,101063.78
2023-05-09T00:32:22.481Z,101078.66
2023-05-09T00:34:49.022Z,101068.50
2023-05-09T00:37:17.173Z,101071.00
2023-05-09T00:39:43.755Z,101057.47
2023-05-09T00:42:11.631Z,101055.09
2023-05-09T00:44:38.268Z,101052.97
2023-05-09T00:47:05.033Z,101059.28
2023-05-09T00:49:32.197Z,101052.44
2023-05-09T00:51:58.867Z,101042.25
2023-05-09T00:54:27.142Z,101036.94
2023-05-09T00:56:54.125Z,101049.91
2023-05-09T00:59:20.971Z,101036.66
2023-05-09T01:01:47.525Z,101030.81
2023-05-09T01:04:14.974Z,101020.91
2023-05-09T01:06:47.437Z,101028.59
2023-05-09T01:09:24.267Z,101030.66
2023-05-09T01:12:02.958Z,101029.13
2023-05-09T01:14:37.829Z,101008.31
2023-05-09T01:17:12.679Z,101029.94
2023-05-09T01:19:56.946Z,101022.16
2023-05-09T01:22:29.706Z,101006.50
2023-05-09T01:25:29.758Z,101026.31
2023-05-09T01:28:12.472Z,101029.91
2023-05-09T01:30:44.049Z,101006.75
2023-05-09T01:33:16.033Z,101022.41
2023-05-09T01:35:44.692Z,101020.47
2023-05-09T01:38:17.225Z,101016.56
2023-05-09T01:40:47.392Z,101011.97
2023-05-09T01:43:16.474Z,101015.59
2023-05-09T01:45:45.771Z,101012.41
2023-05-09T01:48:14.180Z,101013.00
2023-05-09T01:50:43.250Z,101014.25
2023-05-09T01:53:11.126Z,100990.13
2023-05-09T01:55:39.326Z,100999.91
2023-05-09T01:58:06.823Z,101001.56
2023-05-09T02:00:34.500Z,100997.94
2023-05-09T02:03:04.110Z,101001.41
2023-05-09T02:05:31.968Z,100995.44
2023-05-09T02:07:59.592Z,100990.81
2023-05-09T02:10:27.836Z,100995.69
2023-05-09T02:12:55.285Z,101005.19
2023-05-09T02:15:22.331Z,101005.06
2023-05-09T02:17:50.538Z,101004.78
2023-05-09T02:20:18.792Z,100974.50
2023-05-09T02:22:46.603Z,100996.84
2023-05-09T02:25:14.274Z,100994.16
2023-05-09T02:27:42.644Z,100993.63
2023-05-09T02:30:13.958Z,100989.84
2023-05-09T02:32:45.206Z,100996.94
2023-05-09T02:35:12.975Z,100987.63
2023-05-09T02:37:41.483Z,100990.28
2023-05-09T02:40:09.686Z,100987.91
2023-05-09T02:42:36.349Z,100985.66
2023-05-09T02:45:03.423Z,100964.47
2023-05-09T02:47:30.040Z,100967.78
2023-05-09T02:49:58.033Z,100977.28
2023-05-09T02:52:25.307Z,100978.13
2023-05-09T02:54:53.542Z,100968.50
2023-05-09T02:57:20.365Z,100966.25
2023-05-09T02:59:47.045Z,100954.16
2023-05-09T03:02:13.631Z,100962.81
2023-05-09T03:04:40.359Z,100958.34
2023-05-09T03:07:07.694Z,100957.38
2023-05-09T03:09:34.355Z,100960.84
2023-05-09T03:12:02.317Z,100956.94
2023-05-09T03:14:29.061Z,100964.59
2023-05-09T03:16:55.706Z,100948.41
2023-05-09T03:19:28.396Z,100947.97
2023-05-09T03:21:55.071Z,100950.34
2023-05-09T03:24:21.837Z,100942.94
2023-05-09T03:26:48.437Z,100942.50
2023-05-09T03:29:16.768Z,100940.41
2023-05-09T03:31:43.490Z,100935.94
2023-05-09T03:34:10.117Z,100933.69
2023-05-09T03:36:37.190Z,100904.69
2023-05-09T03:39:03.991Z,100941.59
2023-05-09T03:41:30.740Z,100941.19
2023-05-09T03:43:57.348Z,100936.53
2023-05-09T03:46:25.405Z,100936.94
2023-05-09T03:48:52.312Z,100934.97
2023-05-09T03:51:19.066Z,100934.38
2023-05-09T03:53:46.999Z,100926.81
2023-05-09T03:56:14.875Z,100931.84
2023-05-09T03:58:46.989Z,100918.81
2023-05-09T04:01:14.653Z,100921.16
2023-05-09T04:03:43.180Z,100914.28
2023-05-09T04:06:12.908Z,100918.03
2023-05-09T04:08:43.180Z,100914.41
2023-05-09T04:11:09.974Z,100911.63
2023-05-09T04:13:38.703Z,100916.78
2023-05-09T04:16:13.665Z,100919.44
2023-05-09T04:18:40.473Z,100914.50
2023-05-09T04:21:08.400Z,100912.38
2023-05-09T04:23:35.289Z,100913.59
2023-05-09T04:26:02.379Z,100913.69
2023-05-09T04:28:29.389Z,100909.44
2023-05-09T04:30:56.812Z,100907.34
2023-05-09T04:33:23.867Z,100898.94
2023-05-09T04:35:51.297Z,100891.63
2023-05-09T04:38:19.613Z,100894.00
2023-05-09T04:40:46.669Z,100880.84
2023-05-09T04:43:13.364Z,100882.69
2023-05-09T04:45:40.344Z,100901.03
2023-05-09T04:48:07.152Z,100900.59
2023-05-09T04:50:33.785Z,100889.13
2023-05-09T04:53:00.446Z,100880.31
2023-05-09T04:55:28.509Z,100892.38
2023-05-09T04:57:56.312Z,100879.59
2023-05-09T05:00:22.970Z,100879.81
2023-05-09T05:02:49.782Z,100876.53
2023-05-09T05:05:16.411Z,100876.41
2023-05-09T05:07:43.662Z,100874.25
2023-05-09T05:10:13.050Z,100852.94
2023-05-09T05:12:43.487Z,100881.31
2023-05-09T05:15:13.109Z,100876.66
2023-05-09T05:17:41.044Z,100879.00
2023-05-09T05:20:10.146Z,100875.88
2023-05-09T05:22:40.928Z,100871.91
2023-05-09T05:25:08.516Z,100869.63
2023-05-09T05:27:36.405Z,100869.28
2023-05-09T05:30:05.609Z,100867.63
2023-05-09T05:32:32.413Z,100865.34
2023-05-09T05:34:59.301Z,100864.69
2023-05-09T05:37:25.873Z,100859.56
2023-05-09T05:39:52.400Z,100845.94
2023-05-09T05:42:18.973Z,100840.34
2023-05-09T05:44:45.969Z,100847.53
2023-05-09T05:47:14.583Z,100844.69
2023-05-09T05:49:42.672Z,100849.84
2023-05-09T05:52:09.703Z,100853.19
2023-05-09T05:54:37.075Z,100847.38
2023-05-09T05:57:03.690Z,100849.56
2023-05-09T05:59:30.590Z,100851.91
2023-05-09T06:01:57.687Z,100853.41
2023-05-09T06:04:26.112Z,100838.59
2023-05-09T06:06:52.697Z,100847.78
2023-05-09T06:09:19.212Z,100843.31
2023-05-09T06:11:45.778Z,100841.34
2023-05-09T06:14:12.365Z,100833.69
2023-05-09T06:16:39.286Z,100828.72
2023-05-09T06:19:05.830Z,100831.69
2023-05-09T06:21:33.948Z,100821.69
2023-05-09T06:24:06.388Z,100808.38
2023-05-09T06:26:37.092Z,100809.56
2023-05-09T06:29:03.748Z,100816.84
2023-05-09T06:31:30.371Z,100816.84
2023-05-09T06:33:57.233Z,100812.53
2023-05-09T06:36:23.968Z,100814.38
2023-05-09T06:38:51.840Z,100817.69
2023-05-09T06:41:18.418Z,100821.03
2023-05-09T06:43:44.923Z,100812.38
2023-05-09T06:46:11.530Z,100812.72
2023-05-09T06:48:38.200Z,100809.03
2023-05-09T06:51:04.870Z,100804.88
2023-05-09T06:53:31.480Z,100787.06
2023-05-09T06:55:59.669Z,100793.19
2023-05-09T06:58:26.750Z,100798.34
2023-05-09T07:00:53.577Z,100794.31
2023-05-09T07:03:20.448Z,100792.63
2023-05-09T07:05:47.153Z,100796.28
2023-05-09T07:08:13.750Z,100777.75
2023-05-09T07:10:40.371Z,100786.09
2023-05-09T07:13:08.444Z,100778.28
2023-05-09T07:15:42.279Z,100773.06
2023-05-09T07:18:09.678Z,100767.88
2023-05-09T07:20:36.484Z,100765.84
2023-05-09T07:23:03.515Z,100756.78
2023-05-09T07:25:30.132Z,100762.25
2023-05-09T07:27:56.945Z,100746.53
2023-05-09T07:30:25.340Z,100745.81
2023-05-09T07:32:52.368Z,100750.19
2023-05-09T07:35:19.632Z,100737.66
2023-05-09T07:37:46.465Z,100739.09
2023-05-09T07:40:14.067Z,100704.78
2023-05-09T07:42:40.874Z,100733.81
2023-05-09T07:45:08.110Z,100740.78
2023-05-09T07:47:36.306Z,100743.31
2023-05-09T07:50:02.851Z,100727.81
2023-05-09T07:52:29.541Z,100733.91
2023-05-09T07:54:56.090Z,100722.88
2023-05-09T07:57:22.846Z,100731.00
2023-05-09T07:59:49.376Z,100720.41
2023-05-09T08:02:16.116Z,100714.34
2023-05-09T08:04:44.108Z,100707.78
2023-05-09T08:07:10.668Z,100711.28
2023-05-09T08:09:37.192Z,100665.91
2023-05-09T08:12:04.729Z,100699.03
2023-05-09T08:14:31.326Z,100692.03
2023-05-09T08:16:57.998Z,100698.19
2023-05-09T08:19:24.630Z,100688.44
2023-05-09T08:21:52.809Z,100684.09
2023-05-09T08:24:19.374Z,100671.94
2023-05-09T08:26:46.048Z,100676.78
2023-05-09T08:29:12.689Z,100666.69
2023-05-09T08:31:39.423Z,100675.72
2023-05-09T08:34:05.968Z,100674.06
2023-05-09T08:36:32.806Z,100668.88
2023-05-09T08:39:00.735Z,100654.97
2023-05-09T08:41:27.922Z,100657.31
2023-05-09T08:43:54.755Z,100659.50
2023-05-09T08:46:27.824Z,100637.69
2023-05-09T08:48:55.003Z,100655.59
2023-05-09T08:51:22.265Z,100640.00
2023-05-09T08:53:49.324Z,100645.63
2023-05-09T08:56:17.532Z,100643.41
2023-05-09T08:58:44.634Z,100648.63
2023-05-09T09:01:13.766Z,100639.75
2023-05-09T09:03:41.544Z,100646.25
2023-05-09T09:06:09.344Z,100629.56
2023-05-09T09:08:36.485Z,100640.75
2023-05-09T09:11:03.439Z,100625.16
2023-05-09T09:13:32.498Z,100630.34
2023-05-09T09:16:00.920Z,100617.91
2023-05-09T09:18:30.055Z,100618.69
2023-05-09T09:20:59.614Z,100611.09
2023-05-09T09:23:28.724Z,100611.53
2023-05-09T09:25:59.901Z,100612.44
2023-05-09T09:28:27.173Z,100606.44
2023-05-09T09:30:55.446Z,100606.69
2023-05-09T09:33:23.221Z,100604.63
2023-05-09T09:35:50.148Z,100605.63
2023-05-09T09:38:17.454Z,100593.41
2023-05-09T09:40:49.429Z,100591.56
2023-05-09T09:43:16.017Z,100584.22
2023-05-09T09:45:42.866Z,100578.88
2023-05-09T09:48:11.325Z,100587.81
2023-05-09T09:50:37.943Z,100584.59
2023-05-09T09:53:04.528Z,100582.50
2023-05-09T09:55:31.612Z,100571.97
2023-05-09T09:57:58.266Z,100576.09
2023-05-09T10:00:26.061Z,100560.81
2023-05-09T10:02:54.288Z,100562.88
2023-05-09T10:05:24.081Z,100566.81
2023-05-09T10:07:53.722Z,100562.88
2023-05-09T10:10:20.429Z,100556.28
2023-05-09T10:12:47.695Z,100558.97
2023-05-09T10:15:16.785Z,100557.72
2023-05-09T10:17:43.770Z,100548.84
2023-05-09T10:20:13.469Z,100540.75
2023-05-09T10:22:42.002Z,100545.09
2023-05-09T10:25:15.018Z,100540.16
2023-05-09T10:27:46.296Z,100537.03
2023-05-09T10:30:17.469Z,100531.84
2023-05-09T10:32:51.878Z,100520.69
2023-05-09T10:35:20.450Z,100524.75
2023-05-09T10:37:48.846Z,100516.47
2023-05-09T10:40:15.587Z,100508.97
2023-05-09T10:42:43.028Z,100505.69
2023-05-09T10:45:10.976Z,100510.06
2023-05-09T10:47:38.535Z,100499.50
2023-05-09T10:50:06.261Z,100497.00
2023-05-09T10:52:33.090Z,100486.88
2023-05-09T10:55:02.839Z,100475.66
2023-05-09T10:57:30.729Z,100473.09
2023-05-09T10:59:58.439Z,100471.31
2023-05-09T11:02:25.153Z,100470.63
2023-05-09T11:05:13.455Z,100466.75
2023-05-09T11:07:40.320Z,100471.41
2023-05-09T11:10:10.214Z,100461.31
2023-05-09T11:12:57.517Z,100447.88
2023-05-09T11:15:25.289Z,100451.78
2023-05-09T11:18:05.094Z,100435.41
2023-05-09T11:20:34.293Z,100439.69
2023-05-09T11:23:03.521Z,100432.38
2023-05-09T11:25:31.588Z,100427.16
2023-05-09T11:28:00.127Z,100431.25
2023-05-09T11:30:36.066Z,100420.31
2023-05-09T11:33:02.737Z,100413.44
2023-05-09T11:35:29.318Z,100404.22
2023-05-09T11:38:01.000Z,100405.81
2023-05-09T11:40:29.024Z,100397.47
2023-05-09T11:42:58.967Z,100392.41
2023-05-09T11:45:27.727Z,100399.91
2023-05-09T11:47:54.346Z,100395.41
2023-05-09T11:50:21.554Z,100387.81
2023-05-09T11:52:48.862Z,100388.72
2023-05-09T11:55:17.177Z,100380.19
2023-05-09T11:57:45.815Z,100391.59
2023-05-09T12:00:15.936Z,100386.22
2023-05-09T12:02:44.355Z,100379.34
2023-05-09T12:05:12.682Z,100375.09
2023-05-09T12:07:40.466Z,100376.22
2023-05-09T12:10:08.292Z,100373.22
2023-05-09T12:12:36.089Z,100372.88
2023-05-09T12:15:04.402Z,100353.16
2023-05-09T12:17:32.578Z,100360.25
2023-05-09T12:19:59.866Z,100363.28
2023-05-09T12:22:26.616Z,100342.25
2023-05-09T12:24:53.244Z,100351.72
2023-05-09T12:27:20.709Z,100341.84
2023-05-09T12:29:47.760Z,100346.03
2023-05-09T12:32:15.806Z,100342.00
2023-05-09T12:34:44.556Z,100332.19
2023-05-09T12:37:15.163Z,100333.53
2023-05-09T12:39:42.086Z,100319.91
2023-05-09T12:42:12.317Z,100323.19
2023-05-09T12:44:39.195Z,100314.41
2023-05-09T12:47:06.268Z,100316.50
2023-05-09T12:49:37.100Z,100314.81
2023-05-09T12:52:06.177Z,100307.25
2023-05-09T12:54:34.497Z,100295.22
2023-05-09T12:57:01.867Z,100299.06
2023-05-09T12:59:29.481Z,100305.97
2023-05-09T13:01:57.263Z,100291.84
2023-05-09T13:04:25.280Z,100298.66
2023-05-09T13:06:53.356Z,100293.50
2023-05-09T13:09:21.868Z,100292.44
2023-05-09T13:11:49.748Z,100278.75
2023-05-09T13:14:16.703Z,100279.13
2023-05-09T13:16:43.807Z,100286.50
2023-05-09T13:19:10.881Z,100269.69
2023-05-09T13:21:37.913Z,100278.91
2023-05-09T13:24:05.704Z,100272.31
2023-05-09T13:26:33.877Z,100263.16
2023-05-09T13:29:00.693Z,100268.41
2023-05-09T13:31:27.829Z,100259.56
2023-05-09T13:33:54.438Z,100259.72
2023-05-09T13:36:21.121Z,100253.75
2023-05-09T13:38:47.883Z,100225.69
2023-05-09T13:41:14.490Z,100251.88
2023-05-09T13:43:42.670Z,100247.69
2023-05-09T13:46:09.393Z,100240.97
2023-05-09T13:48:36.295Z,100239.53
2023-05-09T13:51:03.182Z,100232.06
2023-05-09T13:53:29.728Z,100235.03
2023-05-09T13:55:56.272Z,100231.22
2023-05-09T13:58:22.895Z,100230.06
2023-05-09T14:00:50.806Z,100231.41
2023-05-09T14:03:17.505Z,100206.94
2023-05-09T14:05:44.201Z,100230.47
2023-05-09T14:08:10.786Z,100207.88
2023-05-09T14:10:37.356Z,100222.91
2023-05-09T14:13:03.930Z,100223.13
2023-05-09T14:15:30.601Z,100211.56
2023-05-09T14:17:58.632Z,100204.13
2023-05-09T14:20:25.596Z,100207.00
2023-05-09T14:22:52.123Z,100204.69
2023-05-09T14:25:18.938Z,100200.34
2023-05-09T14:27:45.579Z,100195.59
2023-05-09T14:30:13.082Z,100182.81
2023-05-09T14:32:39.910Z,100194.75
2023-05-09T14:35:09.323Z,100191.50
2023-05-09T14:37:36.334Z,100187.25
2023-05-09T14:40:03.153Z,100179.63
2023-05-09T14:42:29.718Z,100184.38
2023-05-09T14:44:56.251Z,100172.22
2023-05-09T14:47:22.837Z,100167.09
2023-05-09T14:49:49.480Z,100163.13
2023-05-09T14:52:17.506Z,100163.38
2023-05-09T14:54:44.317Z,100165.50
2023-05-09T14:57:10.864Z,100173.50
2023-05-09T14:59:37.440Z,100158.09
2023-05-09T15:02:04.005Z,100151.94
2023-05-09T15:04:30.711Z,100163.56
2023-05-09T15:06:57.657Z,100165.28
2023-05-09T15:09:25.822Z,100170.09
2023-05-09T15:11:52.409Z,100168.53
2023-05-09T15:14:18.922Z,100161.34
2023-05-09T15:16:45.536Z,100156.88
2023-05-09T15:19:12.245Z,100158.56
2023-05-09T15:21:38.822Z,100152.84
2023-05-09T15:24:06.072Z,100141.50
2023-05-09T15:26:34.126Z,100149.53
2023-05-09T15:29:00.726Z,100149.97
2023-05-09T15:31:32.489Z,100153.50
2023-05-09T15:34:00.318Z,100172.47
2023-05-09T15:36:28.322Z,100172.44
2023-05-09T15:38:55.088Z,100174.94
2023-05-09T15:41:21.797Z,100188.53
2023-05-09T15:43:50.055Z,100185.41
2023-05-09T15:46:16.652Z,100185.59
2023-05-09T15:48:43.370Z,100173.00
2023-05-09T15:51:10.228Z,100180.56
2023-05-09T15:53:36.925Z,100189.97
2023-05-09T15:56:03.795Z,100182.16
2023-05-09T15:58:30.539Z,100184.78
2023-05-09T16:00:58.527Z,100198.16
2023-05-09T16:03:25.524Z,100191.09
2023-05-09T16:05:52.351Z,100185.53
2023-05-09T16:08:18.984Z,100164.66
2023-05-09T16:10:45.837Z,100166.63
2023-05-09T16:13:12.464Z,100171.19
2023-05-09T16:15:39.017Z,100145.78
2023-05-09T16:18:07.242Z,100176.59
2023-05-09T16:20:33.834Z,100164.59
2023-05-09T16:23:00.454Z,100178.97
2023-05-09T16:25:27.044Z,100178.56
2023-05-09T16:27:53.760Z,100174.19
2023-05-09T16:30:20.337Z,100172.53
2023-05-09T16:32:47.022Z,100169.59
2023-05-09T16:35:14.911Z,100168.53
2023-05-09T16:37:41.584Z,100171.41
2023-05-09T16:40:09.317Z,100168.31
2023-05-09T16:42:36.034Z,100156.53
2023-05-09T16:45:02.650Z,100160.91
2023-05-09T16:47:29.355Z,100157.16
2023-05-09T16:49:55.958Z,100143.50
2023-05-09T16:52:24.155Z,100147.00
2023-05-09T16:54:50.689Z,100152.53
2023-05-09T16:57:17.313Z,100150.25
2023-05-09T16:59:43.904Z,100152.94
2023-05-09T17:02:10.888Z,100156.22
2023-05-09T17:04:38.011Z,100150.25
2023-05-09T17:07:04.780Z,100155.78
2023-05-09T17:09:32.919Z,100155.34
2023-05-09T17:11:59.837Z,100147.72
2023-05-09T17:14:26.400Z,100137.16
2023-05-09T17:16:53.551Z,100152.63
2023-05-09T17:19:20.305Z,100150.97
2023-05-09T17:21:46.968Z,100151.97
2023-05-09T17:24:13.604Z,100147.84
2023-05-09T17:26:41.612Z,100143.53
2023-05-09T17:29:08.141Z,100146.38
2023-05-09T17:31:37.265Z,100138.38
2023-05-09T17:34:06.771Z,100115.59
2023-05-09T17:36:33.397Z,100133.59
2023-05-09T17:39:00.298Z,100128.44
2023-05-09T17:41:26.905Z,100125.59
2023-05-09T17:43:54.851Z,100116.09
2023-05-09T17:46:21.564Z,100125.31
2023-05-09T17:48:48.173Z,100123.69
2023-05-09T17:51:14.870Z,100119.72
2023-05-09T17:53:41.496Z,100119.91
2023-05-09T17:56:08.266Z,100113.31
2023-05-09T17:58:34.843Z,100110.19
2023-05-09T18:01:02.991Z,100113.88
2023-05-09T18:03:29.671Z,100112.03
2023-05-09T18:05:56.324Z,100105.22
2023-05-09T18:08:22.972Z,100103.97
2023-05-09T18:10:49.701Z,100099.66
2023-05-09T18:13:16.292Z,100072.56
2023-05-09T18:15:43.074Z,100096.91
2023-05-09T18:18:12.881Z,100084.06
2023-05-09T18:20:41.179Z,100099.31
2023-05-09T18:23:07.780Z,100085.50
2023-05-09T18:25:34.459Z,100091.91
2023-05-09T18:28:01.031Z,100089.00
2023-05-09T18:30:27.675Z,100090.25
2023-05-09T18:32:54.389Z,100087.75
2023-05-09T18:35:22.619Z,100085.09
2023-05-09T18:37:49.291Z,100076.44
2023-05-09T18:40:16.426Z,100083.19
2023-05-09T18:42:43.244Z,100066.59
2023-05-09T18:45:10.809Z,100088.44
2023-05-09T18:47:37.783Z,100086.16
2023-05-09T18:50:05.440Z,100077.50
2023-05-09T18:52:33.360Z,100097.84
2023-05-09T18:55:00.028Z,100094.53
2023-05-09T18:57:26.597Z,100086.44
2023-05-09T18:59:53.277Z,100092.59
2023-05-09T19:02:20.162Z,100069.94
2023-05-09T19:04:46.819Z,100088.66
2023-05-09T19:07:13.518Z,100089.94
2023-05-09T19:09:41.730Z,100088.47
2023-05-09T19:12:08.260Z,100088.66
2023-05-09T19:14:35.154Z,100078.75
2023-05-09T19:17:01.804Z,100087.00
2023-05-09T19:19:28.460Z,100083.69
2023-05-09T19:21:55.204Z,100073.44
2023-05-09T19:24:21.918Z,100079.75
2023-05-09T19:26:50.193Z,100079.28
2023-05-09T19:29:16.867Z,100078.84
2023-05-09T19:31:43.394Z,100080.69
2023-05-09T19:34:10.057Z,100079.78
2023-05-09T19:36:36.750Z,100079.31
2023-05-09T19:39:03.458Z,100081.97
2023-05-09T19:41:29.994Z,100077.47
2023-05-09T19:43:57.987Z,100078.66
2023-05-09T19:46:24.542Z,100083.34
2023-05-09T19:48:51.827Z,100081.22
2023-05-09T19:51:18.362Z,100085.91
2023-05-09T19:53:45.092Z,100084.63
2023-05-09T19:56:11.625Z,100083.63
2023-05-09T19:58:38.368Z,100078.47
2023-05-09T20:01:06.265Z,100078.47
2023-05-09T20:03:33.355Z,100080.31
2023-05-09T20:05:59.958Z,100084.81
2023-05-09T20:08:26.634Z,100075.38
2023-05-09T20:10:53.969Z,100077.03
2023-05-09T20:13:20.703Z,100073.72
2023-05-09T20:15:47.457Z,100074.47
2023-05-09T20:18:15.465Z,100086.59
2023-05-09T20:20:42.556Z,100086.38
2023-05-09T20:23:09.223Z,100096.94
2023-05-09T20:25:36.140Z,100102.88
2023-05-09T20:28:02.811Z,100082.09
2023-05-09T20:30:29.397Z,100102.03
2023-05-09T20:32:56.019Z,100112.34
2023-05-09T20:35:24.390Z,100104.09
2023-05-09T20:37:51.089Z,100093.97
2023-05-09T20:40:17.916Z,100105.38
2023-05-09T20:42:44.673Z,100100.41
2023-05-09T20:45:11.536Z,100105.75
2023-05-09T20:47:38.197Z,100110.34
2023-05-09T20:50:05.487Z,100110.94
2023-05-09T20:52:33.520Z,100118.91
2023-05-09T20:55:00.169Z,100105.00
2023-05-09T20:57:26.780Z,100114.44
2023-05-09T20:59:53.343Z,100111.63
2023-05-09T21:02:20.088Z,100109.78
2023-05-09T21:04:46.684Z,100117.28
2023-05-09T21:07:13.294Z,100110.63
2023-05-09T21:09:41.179Z,100118.59
2023-05-09T21:12:09.844Z,100120.63
2023-05-09T21:14:37.671Z,100125.63
2023-05-09T21:17:04.278Z,100124.13
2023-05-09T21:19:30.892Z,100122.66
2023-05-09T21:21:58.212Z,100116.84
2023-05-09T21:24:24.840Z,100116.50
2023-05-09T21:26:52.780Z,100122.97
2023-05-09T21:29:19.313Z,100122.81
2023-05-09T21:31:45.872Z,100123.31
2023-05-09T21:34:12.510Z,100123.16
2023-05-09T21:36:40.108Z,100123.66
2023-05-09T21:39:07.901Z,100123.16
2023-05-09T21:41:34.720Z,100127.13
2023-05-09T21:44:02.813Z,100125.16
2023-05-09T21:46:31.133Z,100128.97
2023-05-09T21:48:58.052Z,100120.16
2023-05-09T21:51:24.647Z,100124.31
2023-05-09T21:53:51.196Z,100126.31
2023-05-09T21:56:17.882Z,100128.47
2023-05-09T21:58:44.422Z,100126.13
2023-05-09T22:01:12.353Z,100124.78
2023-05-09T22:03:38.965Z,100126.47
2023-05-09T22:06:05.808Z,100125.47
2023-05-09T22:08:32.378Z,100121.34
2023-05-09T22:10:58.982Z,100119.00
2023-05-09T22:13:25.818Z,100122.81
2023-05-09T22:15:52.606Z,100127.13
2023-05-09T22:18:20.586Z,100125.16
2023-05-09T22:20:47.376Z,100127.59
2023-05-09T22:23:13.917Z,100119.69
2023-05-09T22:25:40.542Z,100122.50
2023-05-09T22:28:07.094Z,100129.09
2023-05-09T22:30:33.693Z,100131.75
2023-05-09T22:33:00.466Z,100127.97
2023-05-09T22:35:28.403Z,100122.66
2023-05-09T22:37:54.936Z,100125.16
2023-05-09T22:40:21.641Z,100124.16
2023-05-09T22:42:48.208Z,100122.66
2023-05-09T22:45:14.799Z,100124.63
2023-05-09T22:47:41.693Z,100119.84
2023-05-09T22:50:09.525Z,100127.13
2023-05-09T22:52:37.412Z,100112.03
2023-05-09T22:55:04.762Z,100122.97
2023-05-09T22:57:31.331Z,100120.31
2023-05-09T22:59:57.900Z,100126.28
2023-05-09T23:02:25.550Z,100109.38
2023-05-09T23:04:52.161Z,100122.31
2023-05-09T23:07:18.811Z,100117.66
2023-05-09T23:09:46.737Z,100126.47
2023-05-09T23:12:13.276Z,100117.84
2023-05-09T23:14:39.812Z,100128.31
2023-05-09T23:17:06.359Z,100111.88
2023-05-09T23:19:32.947Z,100124.00
2023-05-09T23:21:59.631Z,100099.13
2023-05-09T23:24:26.177Z,100100.63
2023-05-09T23:26:54.929Z,100121.50
2023-05-09T23:29:21.545Z,100115.72
2023-05-09T23:31:48.299Z,100112.72
2023-05-09T23:34:14.921Z,100115.03
2023-05-09T23:36:41.450Z,100117.34
2023-05-09T23:39:08.084Z,100120.81
2023-05-09T23:41:35.268Z,100128.81
2023-05-09T23:44:03.343Z,100129.13
2023-05-09T23:46:30.246Z,100123.19
2023-05-09T23:48:56.791Z,100126.00
2023-05-09T23:51:23.348Z,100125.16
2023-05-09T23:53:49.889Z,100109.38
2023-05-09T23:56:16.501Z,100120.34
2023-05-09T23:58:43.098Z,100112.41
